Time;durP1;ratioP1;P1;durP2;ratioP2;P2;SDS_P1;SDS_P2;PMS_P1;PMS_P2;Temp;Humidity;BMP_temperature;BMP_pressure;BME280_temperature;BME280_humidity;BME280_pressure;Samples;Min_cycle;Max_cycle;Signal;HPM_P1;HPM_P2
2022/07/13 00:00:34;;;;;;;1.97;1.77;;;19.60;99.90;;;;;;5042704;28;20199;-50
2022/07/13 00:03:01;;;;;;;2.07;1.60;;;19.60;99.90;;;;;;5032485;28;20223;-53
2022/07/13 00:05:29;;;;;;;2.43;1.90;;;19.60;99.90;;;;;;5041851;28;20230;-50
2022/07/13 00:07:56;;;;;;;1.80;1.70;;;19.60;99.90;;;;;;5046235;28;20203;-50
2022/07/13 00:10:23;;;;;;;1.90;1.80;;;19.60;99.90;;;;;;5027456;28;20230;-50
2022/07/13 00:12:50;;;;;;;1.60;1.40;;;19.60;99.90;;;;;;5044917;28;20203;-52
2022/07/13 00:15:18;;;;;;;1.70;1.60;;;19.60;99.90;;;;;;5043579;28;20294;-53
2022/07/13 00:17:45;;;;;;;2.00;1.80;;;19.60;99.90;;;;;;5030870;28;21860;-54
2022/07/13 00:20:12;;;;;;;1.90;1.80;;;19.70;99.90;;;;;;5045091;28;20208;-53
2022/07/13 00:22:40;;;;;;;2.07;1.97;;;19.60;99.90;;;;;;5042944;28;20195;-49
2022/07/13 00:25:08;;;;;;;2.57;1.87;;;19.70;99.90;;;;;;5036484;28;20276;-49
2022/07/13 00:27:34;;;;;;;2.13;1.73;;;19.70;99.90;;;;;;5041582;28;20195;-54
2022/07/13 00:30:01;;;;;;;2.93;1.50;;;19.70;99.90;;;;;;5046026;28;20207;-49
2022/07/13 00:32:29;;;;;;;1.70;1.60;;;19.60;99.90;;;;;;5027968;28;20199;-53
2022/07/13 00:34:56;;;;;;;1.80;1.70;;;19.60;99.90;;;;;;5043161;28;20215;-54
2022/07/13 00:37:23;;;;;;;2.53;1.40;;;19.70;99.90;;;;;;5042627;28;20214;-52
2022/07/13 00:39:50;;;;;;;1.50;1.40;;;19.70;99.90;;;;;;5036075;28;20285;-52
2022/07/13 00:42:17;;;;;;;2.70;1.60;;;19.60;99.90;;;;;;5041086;28;20203;-53
2022/07/13 00:44:44;;;;;;;2.07;1.87;;;19.60;99.90;;;;;;5042599;28;20215;-53
2022/07/13 00:47:12;;;;;;;1.77;1.57;;;19.70;99.90;;;;;;5042700;28;20286;-52
2022/07/13 00:49:40;;;;;;;1.70;1.60;;;19.60;99.90;;;;;;5032776;28;20333;-55
2022/07/13 00:52:07;;;;;;;1.80;1.70;;;19.60;99.90;;;;;;5045758;28;20298;-55
2022/07/13 00:54:36;;;;;;;1.50;1.40;;;19.60;99.90;;;;;;5024019;28;21046;-53
2022/07/13 00:57:04;;;;;;;1.73;1.60;;;19.60;99.90;;;;;;5043886;28;20218;-52
2022/07/13 00:59:31;;;;;;;1.20;1.17;;;19.60;99.90;;;;;;5041378;28;20825;-53
2022/07/13 01:01:59;;;;;;;2.83;1.77;;;19.60;99.90;;;;;;5043541;28;20191;-51
2022/07/13 01:04:26;;;;;;;1.30;1.30;;;19.60;99.90;;;;;;5027708;28;20226;-52
2022/07/13 01:06:55;;;;;;;1.43;1.33;;;19.60;99.90;;;;;;5044794;28;20672;-53
2022/07/13 01:09:23;;;;;;;1.33;1.23;;;19.60;99.90;;;;;;5036632;28;20318;-52
2022/07/13 01:11:51;;;;;;;2.10;1.40;;;19.60;99.90;;;;;;5038526;28;20282;-54
2022/07/13 01:14:18;;;;;;;1.20;1.10;;;19.60;99.90;;;;;;5040856;28;20318;-54
2022/07/13 01:16:45;;;;;;;1.53;1.20;;;19.70;99.90;;;;;;5042844;28;20221;-52
2022/07/13 01:19:13;;;;;;;1.77;1.63;;;19.70;99.90;;;;;;5029500;28;20256;-49
2022/07/13 01:21:41;;;;;;;1.40;1.30;;;19.70;99.90;;;;;;5041704;28;20203;-49
2022/07/13 01:24:10;;;;;;;1.33;1.23;;;19.70;99.90;;;;;;5036625;28;20223;-52
2022/07/13 01:26:38;;;;;;;1.30;1.20;;;19.70;99.90;;;;;;5030891;28;20206;-49
2022/07/13 01:29:06;;;;;;;2.23;1.13;;;19.70;99.90;;;;;;5044609;28;20287;-48
2022/07/13 01:31:37;;;;;;;1.10;1.10;;;19.70;99.90;;;;;;5039427;28;20855;-54
2022/07/13 01:34:05;;;;;;;3.37;1.80;;;19.70;99.90;;;;;;5030436;28;20207;-51
2022/07/13 01:36:32;;;;;;;1.40;1.30;;;19.70;99.90;;;;;;5040413;28;20983;-52
2022/07/13 01:39:00;;;;;;;2.13;1.13;;;19.70;99.90;;;;;;5044140;28;20200;-48
2022/07/13 01:41:29;;;;;;;1.40;1.30;;;19.60;99.90;;;;;;5029933;28;20215;-51
2022/07/13 01:43:57;;;;;;;2.20;1.33;;;19.60;99.90;;;;;;5041771;28;20307;-51
2022/07/13 01:46:24;;;;;;;1.10;1.10;;;19.60;99.90;;;;;;5039844;28;20211;-49
2022/07/13 01:48:51;;;;;;;1.43;1.33;;;19.60;99.90;;;;;;5043833;28;20234;-51
2022/07/13 01:51:18;;;;;;;2.40;1.20;;;19.60;99.90;;;;;;5027575;28;20571;-54
2022/07/13 01:53:46;;;;;;;3.23;1.73;;;19.60;99.90;;;;;;5042000;28;20190;-50
2022/07/13 01:56:13;;;;;;;1.17;1.17;;;19.60;99.90;;;;;;5032701;28;20200;-51
2022/07/13 01:58:41;;;;;;;1.70;1.07;;;19.50;99.90;;;;;;5033083;28;20253;-52
2022/07/13 02:01:08;;;;;;;1.40;1.30;;;19.50;99.90;;;;;;5042763;28;20595;-53
2022/07/13 02:03:36;;;;;;;1.57;1.20;;;19.50;99.90;;;;;;5039697;28;20230;-49
2022/07/13 02:06:05;;;;;;;1.73;1.23;;;19.50;99.90;;;;;;5028978;28;20224;-47
2022/07/13 02:08:32;;;;;;;1.30;1.20;;;19.50;99.90;;;;;;5038640;28;20203;-55
2022/07/13 02:11:00;;;;;;;1.50;1.40;;;19.50;99.90;;;;;;5041990;28;20233;-48
2022/07/13 02:13:27;;;;;;;1.40;1.30;;;19.50;99.90;;;;;;5030389;28;20203;-50
2022/07/13 02:15:56;;;;;;;1.30;1.20;;;19.40;99.90;;;;;;5042694;28;20711;-49
2022/07/13 02:18:25;;;;;;;2.23;1.30;;;19.50;99.90;;;;;;5039367;28;20624;-51
2022/07/13 02:20:52;;;;;;;1.20;1.10;;;19.50;99.90;;;;;;5028238;28;20229;-54
2022/07/13 02:23:19;;;;;;;1.30;1.10;;;19.50;99.90;;;;;;5040042;28;20207;-52
2022/07/13 02:25:46;;;;;;;1.23;1.13;;;19.50;99.90;;;;;;5041148;28;20246;-54
2022/07/13 02:28:13;;;;;;;0.90;0.90;;;19.50;99.90;;;;;;5029632;28;20218;-50
2022/07/13 02:30:40;;;;;;;1.77;1.43;;;19.50;99.90;;;;;;5039206;28;20566;-53
2022/07/13 02:33:08;;;;;;;1.43;1.10;;;19.50;99.90;;;;;;5042084;28;20268;-48
2022/07/13 02:35:37;;;;;;;1.40;1.30;;;19.50;99.90;;;;;;5025724;28;20226;-54
2022/07/13 02:38:04;;;;;;;1.40;1.13;;;19.50;99.90;;;;;;5041507;28;20207;-51
2022/07/13 02:40:31;;;;;;;1.90;1.77;;;19.40;99.90;;;;;;5039678;28;20903;-52
2022/07/13 02:42:58;;;;;;;1.77;1.10;;;19.40;99.90;;;;;;5028521;28;20668;-53
2022/07/13 02:45:25;;;;;;;1.30;1.20;;;19.50;99.90;;;;;;5034777;28;20222;-52
2022/07/13 02:47:55;;;;;;;1.53;1.40;;;19.40;99.90;;;;;;5041784;28;20199;-54
2022/07/13 02:50:23;;;;;;;1.77;1.67;;;19.40;99.90;;;;;;5031019;28;20229;-49
2022/07/13 02:52:52;;;;;;;1.20;1.07;;;19.40;99.90;;;;;;5039579;28;20199;-52
2022/07/13 02:55:18;;;;;;;1.50;1.20;;;19.40;99.90;;;;;;5041104;28;20238;-51
2022/07/13 02:57:45;;;;;;;3.13;1.30;;;19.50;99.90;;;;;;5030634;28;20195;-51
2022/07/13 03:00:14;;;;;;;2.50;1.30;;;19.50;99.90;;;;;;5042422;28;20199;-49
2022/07/13 03:02:43;;;;;;;2.47;1.30;;;19.50;99.90;;;;;;5039913;28;20202;-53
2022/07/13 03:05:13;;;;;;;1.40;1.30;;;19.50;99.90;;;;;;5040609;28;20231;-53
2022/07/13 03:07:41;;;;;;;1.50;1.40;;;19.50;99.90;;;;;;5024761;28;20222;-51
2022/07/13 03:10:09;;;;;;;2.90;1.20;;;19.50;99.90;;;;;;5041800;28;20261;-52
2022/07/13 03:12:37;;;;;;;3.43;1.40;;;19.50;99.90;;;;;;5038731;28;20196;-51
2022/07/13 03:15:05;;;;;;;1.83;1.27;;;19.50;99.90;;;;;;5028934;28;20314;-48
2022/07/13 03:17:32;;;;;;;1.60;1.50;;;19.60;99.90;;;;;;5037508;28;20265;-50
2022/07/13 03:20:01;;;;;;;2.57;2.37;;;19.60;99.90;;;;;;5042048;28;20757;-54
2022/07/13 03:22:29;;;;;;;2.73;2.53;;;19.60;99.90;;;;;;5024537;28;20204;-50
2022/07/13 03:24:57;;;;;;;3.20;2.27;;;19.60;99.90;;;;;;5042068;28;20772;-56
2022/07/13 03:27:24;;;;;;;1.80;1.70;;;19.50;99.90;;;;;;5038716;28;20215;-54
2022/07/13 03:29:53;;;;;;;3.03;1.70;;;19.60;99.90;;;;;;5032795;28;20218;-48
2022/07/13 03:32:20;;;;;;;2.33;1.73;;;19.60;99.90;;;;;;5039201;28;20211;-54
2022/07/13 03:34:47;;;;;;;2.63;2.43;;;19.60;99.90;;;;;;5041186;28;20208;-51
2022/07/13 03:37:18;;;;;;;2.43;1.83;;;19.60;99.90;;;;;;5032526;28;20280;-52
2022/07/13 03:39:46;;;;;;;1.80;1.70;;;19.50;99.90;;;;;;5024731;28;20322;-51
2022/07/13 03:42:14;;;;;;;2.40;1.60;;;19.50;99.90;;;;;;5040619;28;20207;-54
2022/07/13 03:44:41;;;;;;;1.40;1.30;;;19.50;99.90;;;;;;5024189;28;20231;-53
2022/07/13 03:47:08;;;;;;;4.83;1.43;;;19.50;99.90;;;;;;5038721;28;20207;-49
2022/07/13 03:49:35;;;;;;;1.13;1.07;;;19.60;99.90;;;;;;5037449;28;20191;-52
2022/07/13 03:52:02;;;;;;;2.03;1.40;;;19.60;99.90;;;;;;5042958;28;20556;-51
2022/07/13 03:54:31;;;;;;;1.13;0.90;;;19.60;99.90;;;;;;5022789;28;20301;-49
2022/07/13 03:56:58;;;;;;;1.23;1.13;;;19.60;99.90;;;;;;5040956;28;20287;-53
2022/07/13 03:59:27;;;;;;;2.07;1.23;;;19.60;99.90;;;;;;5030594;28;20211;-50
2022/07/13 04:01:53;;;;;;;1.77;1.67;;;19.60;99.90;;;;;;5027313;28;20215;-47
2022/07/13 04:04:20;;;;;;;2.43;2.23;;;19.60;99.90;;;;;;5041575;28;20225;-51
2022/07/13 04:06:49;;;;;;;2.40;2.20;;;19.60;99.90;;;;;;5035357;28;20235;-52
2022/07/13 04:09:16;;;;;;;2.30;1.30;;;19.70;99.90;;;;;;5036962;28;20556;-51
2022/07/13 04:11:43;;;;;;;1.63;1.30;;;19.70;99.90;;;;;;5028252;28;20294;-51
2022/07/13 04:14:11;;;;;;;2.10;1.13;;;19.70;99.90;;;;;;5043143;28;20223;-52
2022/07/13 04:16:39;;;;;;;1.40;1.27;;;19.70;99.90;;;;;;5020088;28;20313;-53
2022/07/13 04:19:07;;;;;;;1.30;1.20;;;19.70;99.90;;;;;;5044330;28;20204;-51
2022/07/13 04:21:35;;;;;;;2.33;1.47;;;19.70;99.90;;;;;;5039530;28;20199;-50
2022/07/13 04:24:01;;;;;;;3.50;1.90;;;19.80;99.90;;;;;;5034826;28;20203;-54
2022/07/13 04:26:29;;;;;;;1.77;1.67;;;19.80;99.90;;;;;;5026826;28;21004;-54
2022/07/13 04:28:57;;;;;;;1.57;1.47;;;19.80;99.90;;;;;;5044147;28;20679;-54
2022/07/13 04:31:26;;;;;;;1.40;1.30;;;19.80;99.90;;;;;;5010582;28;20265;-50
2022/07/13 04:33:55;;;;;;;1.80;1.70;;;19.90;99.90;;;;;;5039405;28;20200;-54
2022/07/13 04:36:23;;;;;;;2.43;1.50;;;19.90;99.90;;;;;;5036460;28;20262;-51
2022/07/13 04:38:52;;;;;;;1.77;1.67;;;19.90;99.90;;;;;;5032569;28;20207;-50
2022/07/13 04:41:18;;;;;;;1.27;1.27;;;20.00;99.90;;;;;;5029280;28;20207;-55
2022/07/13 04:43:45;;;;;;;1.50;1.40;;;20.00;99.90;;;;;;5032404;28;20223;-50
2022/07/13 04:46:15;;;;;;;1.63;1.53;;;20.00;99.90;;;;;;5023039;28;20234;-50
2022/07/13 04:48:43;;;;;;;1.83;1.73;;;20.00;99.90;;;;;;5033644;28;20200;-53
2022/07/13 04:51:13;;;;;;;1.70;1.60;;;20.10;99.90;;;;;;5039027;28;20627;-52
2022/07/13 04:53:42;;;;;;;1.60;1.50;;;20.10;99.90;;;;;;5037317;28;20195;-50
2022/07/13 04:56:12;;;;;;;1.50;1.40;;;20.10;99.90;;;;;;5017903;28;20618;-50
2022/07/13 04:58:39;;;;;;;1.60;1.50;;;20.20;99.90;;;;;;5032989;28;20736;-49
2022/07/13 05:01:07;;;;;;;2.00;1.80;;;20.20;99.90;;;;;;5036828;28;20208;-52
2022/07/13 05:03:36;;;;;;;3.80;1.67;;;20.20;99.90;;;;;;5043956;28;20243;-50
2022/07/13 05:06:03;;;;;;;1.37;1.27;;;20.20;99.90;;;;;;5039807;28;20219;-50
2022/07/13 05:08:32;;;;;;;1.67;1.53;;;20.30;99.90;;;;;;5042209;28;20210;-50
2022/07/13 05:11:00;;;;;;;1.57;1.47;;;20.20;99.90;;;;;;5036779;28;20203;-50
2022/07/13 05:13:27;;;;;;;1.97;1.60;;;20.30;99.90;;;;;;5018224;28;20211;-54
2022/07/13 05:15:56;;;;;;;1.50;1.40;;;20.30;99.90;;;;;;5036615;28;20245;-51
2022/07/13 05:18:23;;;;;;;2.10;1.83;;;20.30;99.90;;;;;;5029213;28;21040;-53
2022/07/13 05:20:50;;;;;;;1.63;1.50;;;20.30;99.90;;;;;;5053956;28;20195;-51
2022/07/13 05:23:17;;;;;;;2.33;1.73;;;20.40;99.90;;;;;;5023980;28;20193;-52
2022/07/13 05:25:47;;;;;;;1.50;1.40;;;20.40;99.90;;;;;;5039986;28;20250;-53
2022/07/13 05:28:14;;;;;;;1.80;1.70;;;20.40;99.90;;;;;;5015315;28;20219;-53
2022/07/13 05:30:41;;;;;;;2.73;1.70;;;20.50;99.90;;;;;;5041890;28;20291;-53
2022/07/13 05:33:08;;;;;;;2.10;1.57;;;20.50;99.90;;;;;;5026953;28;20867;-55
2022/07/13 05:35:35;;;;;;;1.60;1.50;;;20.60;99.90;;;;;;5023061;28;20752;-54
2022/07/13 05:38:02;;;;;;;1.70;1.60;;;20.60;99.90;;;;;;5022142;28;20200;-51
2022/07/13 05:40:29;;;;;;;2.67;2.00;;;20.60;99.90;;;;;;5034877;28;20200;-53
2022/07/13 05:42:57;;;;;;;1.87;1.73;;;20.60;99.90;;;;;;5028521;28;20910;-54
2022/07/13 05:45:25;;;;;;;3.43;1.50;;;20.60;99.90;;;;;;5022243;28;20231;-55
2022/07/13 05:47:52;;;;;;;4.10;1.83;;;20.70;99.90;;;;;;5031908;28;20292;-50
2022/07/13 05:50:21;;;;;;;3.37;1.77;;;20.70;99.90;;;;;;5023922;28;20842;-56
2022/07/13 05:52:48;;;;;;;3.53;2.03;;;20.70;99.90;;;;;;5035198;28;20299;-53
2022/07/13 05:55:17;;;;;;;1.97;1.87;;;20.70;99.90;;;;;;5028634;28;20212;-53
2022/07/13 05:57:45;;;;;;;2.93;2.03;;;20.80;99.90;;;;;;5023652;28;20204;-55
2022/07/13 06:00:14;;;;;;;2.33;1.77;;;20.90;99.90;;;;;;5031596;28;20682;-53
2022/07/13 06:02:42;;;;;;;1.80;1.70;;;20.90;99.90;;;;;;5042970;28;20776;-49
2022/07/13 06:05:09;;;;;;;2.83;1.80;;;21.00;99.90;;;;;;5035181;28;20345;-54
2022/07/13 06:07:36;;;;;;;3.75;2.25;;;21.00;99.90;;;;;;5037268;28;20219;-54
2022/07/13 06:10:04;;;;;;;3.80;2.60;;;21.00;99.90;;;;;;5039996;28;20207;-55
2022/07/13 06:12:31;;;;;;;2.33;2.00;;;21.10;99.90;;;;;;5039920;28;20191;-52
2022/07/13 06:14:58;;;;;;;2.00;1.80;;;21.10;99.90;;;;;;5019419;28;20230;-53
2022/07/13 06:17:28;;;;;;;3.57;2.27;;;21.20;99.90;;;;;;5036242;28;20210;-53
2022/07/13 06:19:54;;;;;;;1.67;1.57;;;21.30;99.90;;;;;;5038395;28;20275;-51
2022/07/13 06:22:22;;;;;;;6.50;2.10;;;21.30;99.90;;;;;;5026006;28;20188;-54
2022/07/13 06:24:48;;;;;;;3.87;2.07;;;21.30;99.90;;;;;;5037605;28;20234;-51
2022/07/13 06:27:15;;;;;;;2.33;2.15;;;21.40;99.90;;;;;;5038164;28;20203;-54
2022/07/13 06:29:42;;;;;;;2.27;2.07;;;21.40;99.90;;;;;;5029406;28;20223;-52
2022/07/13 06:32:09;;;;;;;2.10;1.93;;;21.50;99.90;;;;;;5037384;28;20282;-54
2022/07/13 06:34:37;;;;;;;3.30;2.10;;;21.50;99.90;;;;;;5035741;28;20696;-51
2022/07/13 06:37:04;;;;;;;1.73;1.60;;;21.60;99.90;;;;;;5036477;28;20195;-50
2022/07/13 06:39:31;;;;;;;2.65;2.45;;;21.60;99.90;;;;;;5034521;28;20199;-54
2022/07/13 06:41:57;;;;;;;2.45;2.03;;;21.70;99.90;;;;;;5042263;28;20199;-54
2022/07/13 06:44:25;;;;;;;3.80;2.53;;;21.80;99.90;;;;;;5026200;28;20223;-50
2022/07/13 06:46:52;;;;;;;2.88;2.67;;;21.90;99.90;;;;;;5041410;28;20219;-48
2022/07/13 06:49:18;;;;;;;5.03;2.20;;;22.00;99.90;;;;;;5037942;28;20423;-54
2022/07/13 06:51:46;;;;;;;2.78;2.58;;;22.10;99.90;;;;;;5043194;28;20204;-50
2022/07/13 06:54:13;;;;;;;2.75;2.58;;;22.10;99.90;;;;;;5029503;28;20234;-54
2022/07/13 06:56:40;;;;;;;2.47;2.28;;;22.10;99.90;;;;;;5043416;28;20192;-51
2022/07/13 06:59:07;;;;;;;3.05;2.75;;;22.10;99.90;;;;;;5026204;28;20207;-53
2022/07/13 07:01:34;;;;;;;4.07;2.72;;;22.10;99.90;;;;;;5038237;28;20390;-48
2022/07/13 07:04:04;;;;;;;3.00;2.78;;;22.00;99.90;;;;;;5034846;28;20206;-49
2022/07/13 07:06:31;;;;;;;3.25;3.00;;;22.00;99.90;;;;;;5034070;28;20207;-51
2022/07/13 07:08:59;;;;;;;4.38;3.17;;;22.00;99.90;;;;;;5027015;28;20283;-52
2022/07/13 07:11:26;;;;;;;3.22;3.03;;;22.00;99.90;;;;;;5034052;28;20206;-51
2022/07/13 07:13:53;;;;;;;3.47;3.15;;;22.00;99.90;;;;;;5041186;28;20195;-50
2022/07/13 07:16:20;;;;;;;3.33;2.70;;;22.10;99.90;;;;;;5025753;28;20203;-47
2022/07/13 07:18:47;;;;;;;4.63;2.17;;;22.10;99.90;;;;;;5042468;28;20615;-51
2022/07/13 07:21:14;;;;;;;5.93;2.58;;;22.10;99.90;;;;;;5037875;28;20203;-51
2022/07/13 07:23:41;;;;;;;3.55;3.05;;;22.10;99.90;;;;;;5042265;28;20230;-48
2022/07/13 07:26:09;;;;;;;3.05;2.85;;;22.10;99.90;;;;;;5024511;28;20597;-52
2022/07/13 07:28:36;;;;;;;3.60;3.30;;;22.10;99.90;;;;;;5039707;28;20207;-51
2022/07/13 07:31:03;;;;;;;3.10;2.85;;;22.00;99.90;;;;;;5027965;28;20215;-48
2022/07/13 07:33:31;;;;;;;3.63;2.65;;;22.00;99.90;;;;;;5040386;28;20279;-49
2022/07/13 07:35:57;;;;;;;3.13;2.78;;;21.90;99.90;;;;;;5042251;28;20215;-52
2022/07/13 07:38:24;;;;;;;3.67;3.30;;;21.90;99.90;;;;;;5041506;28;20926;-50
2022/07/13 07:40:51;;;;;;;3.45;3.15;;;21.90;99.90;;;;;;5036520;28;20199;-51
2022/07/13 07:43:19;;;;;;;3.83;2.50;;;21.90;99.90;;;;;;5030404;28;20199;-48
2022/07/13 07:45:46;;;;;;;4.63;3.35;;;21.90;99.90;;;;;;5032653;28;20734;-46
2022/07/13 07:48:13;;;;;;;3.85;3.20;;;21.90;99.90;;;;;;5041299;28;20254;-52
2022/07/13 07:50:40;;;;;;;2.75;2.55;;;21.90;99.90;;;;;;5046105;28;20203;-49
2022/07/13 07:53:07;;;;;;;2.95;2.55;;;21.90;99.90;;;;;;5044087;28;20202;-49
2022/07/13 07:55:34;;;;;;;3.17;2.53;;;21.90;99.90;;;;;;5036396;28;21210;-51
2022/07/13 07:58:01;;;;;;;5.25;3.40;;;21.90;99.90;;;;;;5034764;28;20207;-49
2022/07/13 08:00:30;;;;;;;3.58;2.90;;;22.00;99.90;;;;;;5030359;28;20199;-49
2022/07/13 08:03:02;;;;;;;3.30;3.00;;;22.10;99.90;;;;;;5045405;28;20191;-50
2022/07/13 08:05:29;;;;;;;2.70;2.53;;;22.20;99.90;;;;;;5043547;28;20945;-49
2022/07/13 08:07:57;;;;;;;4.35;2.80;;;22.20;99.90;;;;;;5045550;28;20296;-50
2022/07/13 08:10:24;;;;;;;2.92;2.72;;;22.30;99.90;;;;;;5040784;28;20290;-51
2022/07/13 08:12:51;;;;;;;3.22;3.03;;;22.30;99.90;;;;;;5035065;28;20204;-51
2022/07/13 08:15:18;;;;;;;3.05;2.63;;;22.40;99.90;;;;;;5016339;28;20227;-48
2022/07/13 08:17:47;;;;;;;3.08;2.78;;;22.40;99.90;;;;;;5044372;28;20225;-49
2022/07/13 08:20:14;;;;;;;3.03;2.83;;;22.50;99.90;;;;;;5038926;28;20536;-52
2022/07/13 08:22:41;;;;;;;3.90;2.88;;;22.50;99.90;;;;;;5044285;28;20199;-54
2022/07/13 08:25:07;;;;;;;3.40;3.20;;;22.50;99.90;;;;;;5042765;28;20247;-51
2022/07/13 08:27:34;;;;;;;2.88;2.65;;;22.50;99.90;;;;;;5035014;28;20234;-51
2022/07/13 08:30:01;;;;;;;2.97;2.60;;;22.50;99.90;;;;;;5028519;28;20207;-50
2022/07/13 08:32:28;;;;;;;3.38;3.00;;;22.60;99.90;;;;;;5036083;28;20234;-52
2022/07/13 08:40:26;;;;;;;4.65;2.88;;;22.60;99.90;;;;;;5038421;28;20191;-53
2022/07/13 08:42:52;;;;;;;4.93;3.13;;;22.70;99.90;;;;;;5036109;28;20199;-53
2022/07/13 08:45:20;;;;;;;3.40;3.10;;;22.80;99.90;;;;;;5036032;28;20796;-49
2022/07/13 08:47:47;;;;;;;3.08;2.67;;;22.80;99.90;;;;;;5030422;28;20230;-46
2022/07/13 08:50:17;;;;;;;3.25;3.05;;;22.80;99.90;;;;;;5030622;28;20207;-51
2022/07/13 08:52:48;;;;;;;4.50;3.92;;;22.90;99.90;;;;;;5045228;28;20211;-50
2022/07/13 08:55:15;;;;;;;4.65;3.55;;;22.90;99.90;;;;;;5030642;28;20219;-49
2022/07/13 08:57:42;;;;;;;4.57;3.38;;;22.90;99.90;;;;;;5032236;28;20196;-50
2022/07/13 09:00:11;;;;;;;2.95;2.75;;;23.00;99.90;;;;;;5042142;28;20195;-54
2022/07/13 09:02:39;;;;;;;8.30;3.88;;;23.00;99.90;;;;;;5031721;28;20213;-53
2022/07/13 09:05:07;;;;;;;4.25;3.45;;;23.10;99.90;;;;;;5036412;28;20231;-53
2022/07/13 09:07:36;;;;;;;4.95;4.00;;;23.10;99.90;;;;;;5042686;28;20203;-54
2022/07/13 09:10:05;;;;;;;4.30;3.47;;;23.20;99.90;;;;;;5033585;28;20211;-52
2022/07/13 09:12:33;;;;;;;3.92;3.55;;;23.10;99.90;;;;;;5043360;28;20293;-51
2022/07/13 09:15:02;;;;;;;4.22;3.78;;;23.20;99.90;;;;;;5031519;28;20290;-53
2022/07/13 09:17:34;;;;;;;3.67;3.47;;;23.30;99.90;;;;;;5020358;28;21534;-53
2022/07/13 09:20:15;;;;;;;5.25;4.75;;;23.40;99.90;;;;;;5040270;28;20200;-54
2022/07/13 09:22:49;;;;;;;3.95;3.63;;;23.50;99.90;;;;;;5044297;28;20195;-54
2022/07/13 09:25:25;;;;;;;5.20;3.90;;;23.60;99.90;;;;;;5040475;28;20216;-51
2022/07/13 09:27:53;;;;;;;5.65;4.47;;;23.70;99.90;;;;;;5037585;28;20281;-54
2022/07/13 09:30:23;;;;;;;4.20;3.90;;;23.80;99.90;;;;;;5030334;28;20290;-51
2022/07/13 09:32:51;;;;;;;7.93;4.43;;;23.90;99.90;;;;;;5044484;28;20286;-49
2022/07/13 09:35:18;;;;;;;4.05;3.72;;;24.00;99.90;;;;;;5020457;28;20928;-53
2022/07/13 09:37:45;;;;;;;4.03;3.72;;;24.10;99.90;;;;;;5041377;28;20195;-54
2022/07/13 09:40:17;;;;;;;5.88;4.25;;;24.30;99.90;;;;;;5041022;28;20290;-51
2022/07/13 09:42:45;;;;;;;4.00;3.63;;;24.30;99.90;;;;;;5044073;28;20195;-53
2022/07/13 09:47:58;;;;;;;6.00;3.78;;;24.50;99.90;;;;;;5042964;28;20602;-51
2022/07/13 09:50:36;;;;;;;4.22;3.92;;;24.70;99.90;;;;;;5018622;28;20237;-52
2022/07/13 09:53:21;;;;;;;3.33;3.03;;;24.70;99.90;;;;;;5034654;28;20229;-50
2022/07/13 09:55:51;;;;;;;4.40;3.80;;;24.80;99.90;;;;;;5039137;28;20593;-54
2022/07/13 09:58:23;;;;;;;3.53;3.33;;;24.80;99.90;;;;;;5042937;28;20211;-53
2022/07/13 10:00:51;;;;;;;4.43;3.70;;;24.80;99.90;;;;;;5031704;28;20669;-52
2022/07/13 10:03:18;;;;;;;4.90;3.60;;;24.80;99.70;;;;;;5038902;28;20227;-50
2022/07/13 10:05:45;;;;;;;5.18;3.53;;;24.80;99.50;;;;;;5024745;28;20222;-52
2022/07/13 10:08:12;;;;;;;6.70;4.38;;;24.90;99.40;;;;;;5036744;28;20211;-51
2022/07/13 10:10:40;;;;;;;4.85;4.15;;;24.80;99.70;;;;;;5041040;28;20196;-50
2022/07/13 10:13:08;;;;;;;3.78;3.50;;;24.80;99.60;;;;;;5039910;28;20899;-50
2022/07/13 10:15:36;;;;;;;3.88;3.67;;;24.80;99.60;;;;;;5039165;28;20219;-50
2022/07/13 10:18:06;;;;;;;3.80;3.33;;;24.90;99.90;;;;;;5027341;28;20283;-51
2022/07/13 10:20:35;;;;;;;4.00;3.45;;;25.10;99.90;;;;;;5042765;28;20679;-52
2022/07/13 10:23:02;;;;;;;4.43;4.03;;;25.10;99.90;;;;;;5022385;28;20210;-52
2022/07/13 10:25:42;;;;;;;3.78;3.40;;;25.30;99.70;;;;;;5043090;28;20223;-53
2022/07/13 10:28:12;;;;;;;5.00;3.63;;;25.30;99.70;;;;;;5041747;28;20316;-53
2022/07/13 10:30:40;;;;;;;4.63;3.70;;;25.30;99.80;;;;;;5042305;28;20214;-52
2022/07/13 10:33:18;;;;;;;5.75;3.22;;;25.30;99.80;;;;;;5030234;28;20279;-53
2022/07/13 10:35:50;;;;;;;10.15;4.50;;;25.30;99.90;;;;;;5031563;28;20211;-51
2022/07/13 10:38:22;;;;;;;4.18;3.78;;;25.50;99.20;;;;;;5030653;28;20218;-52
2022/07/13 10:40:50;;;;;;;4.53;4.13;;;25.60;99.90;;;;;;5038568;28;20286;-52
2022/07/13 10:43:18;;;;;;;3.80;3.50;;;25.60;99.70;;;;;;5040355;28;20260;-49
2022/07/13 10:45:52;;;;;;;4.68;3.83;;;25.60;99.80;;;;;;5039933;28;20249;-53
2022/07/13 10:48:43;;;;;;;4.43;4.03;;;25.60;99.80;;;;;;5042076;28;20542;-52
2022/07/13 10:51:21;;;;;;;4.75;4.45;;;25.70;99.80;;;;;;5027713;28;20207;-50
2022/07/13 10:54:19;;;;;;;5.55;4.28;;;25.70;99.20;;;;;;5027154;28;20210;-49
2022/07/13 10:57:14;;;;;;;4.82;4.53;;;25.80;99.10;;;;;;5033294;28;20941;-49
2022/07/13 10:59:50;;;;;;;4.55;3.88;;;25.70;99.20;;;;;;5037555;28;20282;-47
2022/07/13 11:02:43;;;;;;;5.47;3.60;;;25.70;99.90;;;;;;5031131;28;20656;-49
2022/07/13 11:05:10;;;;;;;7.03;3.70;;;25.80;99.70;;;;;;5029258;28;20337;-50
2022/07/13 11:07:41;;;;;;;4.50;4.00;;;25.90;99.50;;;;;;5023644;28;20228;-47
2022/07/13 11:10:22;;;;;;;6.97;4.88;;;25.90;99.40;;;;;;5041700;28;20218;-52
2022/07/13 11:13:01;;;;;;;4.38;3.97;;;26.00;99.50;;;;;;5040279;28;20967;-50
2022/07/13 11:15:46;;;;;;;5.35;4.22;;;26.00;99.80;;;;;;5039452;28;20583;-53
2022/07/13 11:18:28;;;;;;;4.07;3.47;;;26.10;99.10;;;;;;5036779;28;20626;-52
2022/07/13 11:20:55;;;;;;;4.65;4.28;;;26.10;99.40;;;;;;5031068;28;20202;-54
2022/07/13 11:26:18;;;;;;;4.03;3.33;;;26.10;99.10;;;;;;5042284;28;20293;-49
2022/07/13 11:28:52;;;;;;;4.63;3.83;;;26.10;99.20;;;;;;5041965;28;20193;-51
2022/07/13 11:31:21;;;;;;;5.20;3.72;;;26.20;98.30;;;;;;5045943;28;20203;-53
2022/07/13 11:33:51;;;;;;;5.05;3.67;;;26.20;98.00;;;;;;5038517;28;20245;-49
2022/07/13 11:36:23;;;;;;;3.85;3.13;;;26.30;98.40;;;;;;5032290;28;20207;-54
2022/07/13 11:38:50;;;;;;;4.93;3.47;;;26.30;98.40;;;;;;5028094;28;20210;-52
2022/07/13 11:41:20;;;;;;;3.47;3.28;;;26.30;97.80;;;;;;5044216;28;20202;-51
2022/07/13 11:43:47;;;;;;;3.95;3.30;;;26.40;97.20;;;;;;5040917;28;20213;-48
2022/07/13 11:46:15;;;;;;;3.40;3.10;;;26.40;97.00;;;;;;5045824;28;20673;-53
2022/07/13 11:48:43;;;;;;;2.90;2.60;;;26.50;96.90;;;;;;5041620;28;20211;-50
2022/07/13 11:51:09;;;;;;;4.68;3.30;;;26.70;97.10;;;;;;5033133;28;20215;-50
2022/07/13 11:53:37;;;;;;;3.08;2.80;;;26.70;96.30;;;;;;5026903;28;25127;-49
2022/07/13 11:56:06;;;;;;;3.25;2.88;;;26.80;96.10;;;;;;5044306;28;20215;-50
2022/07/13 11:58:34;;;;;;;4.45;3.30;;;26.80;96.10;;;;;;5030952;28;20229;-52
2022/07/13 12:01:10;;;;;;;4.45;3.88;;;26.80;95.60;;;;;;5044754;28;20202;-47
2022/07/13 12:03:37;;;;;;;5.10;3.50;;;26.80;95.30;;;;;;5038489;28;20954;-53
2022/07/13 12:06:07;;;;;;;3.78;3.42;;;26.60;95.70;;;;;;5032102;28;20231;-54
2022/07/13 12:08:36;;;;;;;5.10;3.28;;;26.80;95.10;;;;;;5029375;28;20219;-50
2022/07/13 12:11:04;;;;;;;3.40;3.10;;;26.90;94.70;;;;;;5032508;28;20249;-51
2022/07/13 12:13:33;;;;;;;4.20;2.72;;;26.90;93.90;;;;;;5042319;28;20204;-53
2022/07/13 12:16:00;;;;;;;4.15;2.90;;;26.90;93.20;;;;;;5045624;28;20265;-50
2022/07/13 12:18:27;;;;;;;3.20;2.90;;;26.70;92.60;;;;;;5043845;28;20706;-50
2022/07/13 12:20:54;;;;;;;3.72;2.85;;;26.80;92.80;;;;;;5044414;28;20195;-53
2022/07/13 12:23:22;;;;;;;4.55;3.75;;;26.80;92.70;;;;;;5033254;28;20733;-54
2022/07/13 12:26:04;;;;;;;4.03;3.72;;;26.90;92.30;;;;;;5030035;28;20227;-48
2022/07/13 12:28:32;;;;;;;4.13;3.38;;;26.80;91.60;;;;;;5038510;28;20255;-49
2022/07/13 12:31:00;;;;;;;4.05;3.65;;;27.00;92.30;;;;;;5045122;28;20686;-51
2022/07/13 12:33:42;;;;;;;6.55;2.90;;;27.20;91.50;;;;;;5037247;28;20205;-49
2022/07/13 12:36:10;;;;;;;3.42;3.13;;;27.20;90.80;;;;;;5045448;28;20223;-51
2022/07/13 12:41:34;;;;;;;4.40;2.53;;;27.20;90.50;;;;;;5085634;27;20648;-51
2022/07/13 12:44:04;;;;;;;2.90;2.60;;;27.00;88.60;;;;;;5091218;28;20596;-52
2022/07/13 12:46:52;;;;;;;4.05;2.70;;;26.90;88.30;;;;;;5073571;28;20208;-51
2022/07/13 12:49:26;;;;;;;3.33;2.78;;;26.80;86.50;;;;;;5080456;28;20207;-52
2022/07/13 12:51:53;;;;;;;2.47;1.98;;;26.80;87.60;;;;;;5078986;28;20971;-49
2022/07/13 12:54:40;;;;;;;3.60;2.10;;;27.00;87.10;;;;;;5067744;28;20214;-53
2022/07/13 12:57:10;;;;;;;1.90;1.80;;;27.20;83.30;;;;;;5080222;28;20194;-51
2022/07/13 12:59:38;;;;;;;5.82;3.00;;;27.30;80.60;;;;;;5073225;28;21020;-49
2022/07/13 13:02:05;;;;;;;3.17;2.70;;;27.30;82.90;;;;;;5074091;28;20198;-51
2022/07/13 13:04:32;;;;;;;2.47;2.28;;;27.30;83.30;;;;;;5070041;28;20218;-53
2022/07/13 13:06:59;;;;;;;3.22;2.50;;;27.50;83.30;;;;;;5080233;28;20682;-53
2022/07/13 13:09:26;;;;;;;2.30;2.10;;;27.50;82.40;;;;;;5070346;28;20206;-54